Time;durP1;ratioP1;P1;durP2;ratioP2;P2;SDS_P1;SDS_P2;PMS_P1;PMS_P2;Temp;Humidity;BMP_temperature;BMP_pressure;BME280_temperature;BME280_humidity;BME280_pressure;Samples;Min_cycle;Max_cycle;Signal;HPM_P1;HPM_P2
2021/07/11 00:00:34;;;;;;;18.13;17.43;;;17.80;99.90;;;;;;5012031;28;20460;-73
2021/07/11 00:03:01;;;;;;;17.03;16.23;;;17.80;99.90;;;;;;5011905;28;20514;-73
2021/07/11 00:05:28;;;;;;;17.17;16.50;;;17.70;99.90;;;;;;5012115;28;20976;-72
2021/07/11 00:07:56;;;;;;;18.57;17.87;;;17.70;99.90;;;;;;5012034;28;20501;-73
2021/07/11 00:10:25;;;;;;;19.03;18.13;;;17.70;99.90;;;;;;5011493;28;20450;-72
2021/07/11 00:12:52;;;;;;;19.20;18.40;;;17.60;99.90;;;;;;5011958;28;20450;-72
2021/07/11 08:12:01;;;;;;;13.00;12.60;;;29.90;83.60;;;;;;5860779;23;20488;-80
2021/07/11 08:14:28;;;;;;;12.17;11.77;;;29.40;85.00;;;;;;5012127;28;20470;-80
2021/07/11 08:16:56;;;;;;;12.23;11.73;;;28.80;85.70;;;;;;5013194;28;20477;-79
2021/07/11 08:19:22;;;;;;;29.87;13.23;;;27.50;87.70;;;;;;5018148;28;20497;-81
2021/07/11 08:21:53;;;;;;;11.77;11.37;;;26.80;90.40;;;;;;5016231;28;20454;-81
2021/07/11 08:24:20;;;;;;;12.13;11.53;;;26.10;91.70;;;;;;5012923;28;20494;-81
2021/07/11 08:26:47;;;;;;;11.70;11.30;;;25.70;93.00;;;;;;5013636;28;20476;-81
2021/07/11 08:29:15;;;;;;;13.53;12.73;;;25.40;93.50;;;;;;5014777;28;20962;-81
2021/07/11 08:31:42;;;;;;;13.17;12.57;;;25.00;94.50;;;;;;5015075;28;20465;-80
2021/07/11 08:34:09;;;;;;;11.50;11.10;;;24.80;95.20;;;;;;5011093;28;20458;-81
2021/07/11 08:36:35;;;;;;;11.93;11.53;;;24.80;94.90;;;;;;5011413;28;20457;-81
2021/07/11 08:39:04;;;;;;;12.20;11.80;;;25.40;95.00;;;;;;5010666;28;20485;-80
2021/07/11 08:41:30;;;;;;;11.90;11.40;;;26.40;92.80;;;;;;5010314;28;20801;-80
2021/07/11 08:43:57;;;;;;;12.60;12.10;;;28.00;90.40;;;;;;5010558;28;20446;-80
2021/07/11 08:46:25;;;;;;;12.60;12.10;;;29.30;85.90;;;;;;5010426;28;20799;-80
2021/07/11 08:48:52;;;;;;;12.13;11.30;;;30.30;81.10;;;;;;5010426;28;20453;-79
2021/07/11 08:51:19;;;;;;;12.70;12.20;;;29.60;83.90;;;;;;5010779;28;20852;-79
2021/07/11 08:53:46;;;;;;;11.40;11.00;;;28.30;86.20;;;;;;5010413;28;20441;-80
2021/07/11 08:56:17;;;;;;;12.50;12.10;;;28.00;88.00;;;;;;5010540;28;20452;-79
2021/07/11 08:58:49;;;;;;;11.10;10.70;;;27.80;86.80;;;;;;5010231;28;20544;-79
2021/07/11 09:01:19;;;;;;;12.30;11.90;;;27.70;87.60;;;;;;5009355;28;20450;-78
2021/07/11 09:04:01;;;;;;;12.00;11.60;;;27.10;89.60;;;;;;5003318;28;20461;-78
2021/07/11 09:06:39;;;;;;;11.50;11.00;;;26.50;90.40;;;;;;4990423;28;20490;-78
2021/07/11 09:09:06;;;;;;;12.93;12.47;;;25.70;92.30;;;;;;4994007;28;20470;-78
2021/07/11 09:11:33;;;;;;;11.50;11.00;;;25.30;93.40;;;;;;4996973;28;20510;-78
2021/07/11 09:14:00;;;;;;;12.10;11.60;;;25.00;94.40;;;;;;4990096;28;20455;-78
2021/07/11 09:16:26;;;;;;;11.70;11.20;;;24.60;95.20;;;;;;4990496;28;20808;-79
2021/07/11 09:18:54;;;;;;;12.57;11.70;;;24.50;94.80;;;;;;4990066;28;20491;-79
2021/07/11 09:21:21;;;;;;;10.93;10.53;;;24.30;95.60;;;;;;4989919;28;20979;-79
2021/07/11 09:23:48;;;;;;;11.50;11.00;;;24.30;95.10;;;;;;4990293;28;20458;-79
2021/07/11 09:26:16;;;;;;;11.20;10.70;;;24.40;94.30;;;;;;4993094;28;20450;-80
2021/07/11 09:28:47;;;;;;;11.43;11.03;;;24.50;93.70;;;;;;4995302;28;20451;-80
2021/07/11 09:31:17;;;;;;;11.00;10.60;;;24.50;93.80;;;;;;4994742;28;20458;-79
2021/07/11 09:33:46;;;;;;;11.50;11.00;;;24.50;93.70;;;;;;4996486;28;20456;-80
2021/07/11 09:36:17;;;;;;;11.53;11.13;;;24.50;93.70;;;;;;4992868;28;20439;-79
2021/07/11 09:38:47;;;;;;;10.87;10.47;;;24.40;93.60;;;;;;4990385;28;20999;-79
2021/07/11 09:41:23;;;;;;;12.00;11.50;;;24.60;94.00;;;;;;4989629;28;20924;-79
2021/07/11 09:43:51;;;;;;;12.97;12.47;;;24.40;94.10;;;;;;4990407;28;20516;-79
2021/07/11 09:46:19;;;;;;;10.17;9.83;;;24.60;94.10;;;;;;4989952;28;20534;-79
2021/07/11 09:48:46;;;;;;;10.80;10.30;;;24.40;94.10;;;;;;4989766;28;20470;-79
2021/07/11 09:51:19;;;;;;;11.30;10.70;;;24.80;94.30;;;;;;4989668;28;20451;-79
2021/07/11 09:53:48;;;;;;;11.60;11.20;;;24.70;93.40;;;;;;4992801;28;20455;-78
2021/07/11 09:56:30;;;;;;;10.97;10.47;;;24.90;93.00;;;;;;4988752;28;20465;-79
2021/07/11 09:58:57;;;;;;;11.40;10.60;;;25.00;93.80;;;;;;4989752;28;20490;-79
2021/07/11 10:01:24;;;;;;;10.57;10.17;;;25.00;92.50;;;;;;4989172;28;20457;-79
2021/07/11 10:03:51;;;;;;;10.43;10.03;;;24.90;93.40;;;;;;4989174;28;20443;-79
2021/07/11 10:06:19;;;;;;;9.80;9.43;;;25.30;92.60;;;;;;4988780;28;20450;-79
2021/07/11 10:08:46;;;;;;;9.97;9.50;;;25.70;91.40;;;;;;4989072;28;20447;-78
2021/07/11 10:11:13;;;;;;;10.73;10.23;;;25.70;91.90;;;;;;5000310;28;20497;-78
2021/07/11 10:13:39;;;;;;;10.90;10.40;;;26.30;91.20;;;;;;4989576;28;20494;-78
2021/07/11 10:16:08;;;;;;;11.57;11.00;;;26.80;90.70;;;;;;4989350;28;20972;-78
2021/07/11 10:18:36;;;;;;;10.97;10.57;;;26.60;89.80;;;;;;4991739;28;20451;-79
2021/07/11 10:21:03;;;;;;;10.80;10.37;;;27.00;90.80;;;;;;4993098;28;20454;-79
2021/07/11 10:23:32;;;;;;;11.00;10.60;;;27.50;89.50;;;;;;4992916;28;20573;-78
2021/07/11 10:26:01;;;;;;;11.20;10.80;;;28.30;87.20;;;;;;4992900;28;20545;-79
2021/07/11 10:28:30;;;;;;;11.83;11.33;;;28.90;86.40;;;;;;4993199;28;20813;-78
2021/07/11 10:30:57;;;;;;;12.37;11.97;;;28.70;84.60;;;;;;4993295;28;20454;-78
2021/07/11 10:33:25;;;;;;;11.67;11.10;;;28.00;85.80;;;;;;4993183;28;20814;-77
2021/07/11 10:35:55;;;;;;;11.83;11.33;;;28.00;87.30;;;;;;4992590;28;20455;-78
2021/07/11 10:38:32;;;;;;;10.97;10.57;;;28.30;87.80;;;;;;4992785;28;20459;-78
2021/07/11 10:41:13;;;;;;;11.63;11.00;;;28.20;86.90;;;;;;4992694;28;20493;-78
2021/07/11 10:43:40;;;;;;;11.63;11.13;;;28.40;85.30;;;;;;4993146;28;20458;-78
2021/07/11 10:46:07;;;;;;;12.93;12.23;;;28.30;86.10;;;;;;4992245;28;20458;-77
2021/07/11 10:48:34;;;;;;;11.70;11.30;;;28.30;85.00;;;;;;4992626;28;20473;-77
2021/07/11 10:51:01;;;;;;;11.00;10.60;;;28.40;84.90;;;;;;4992440;28;20951;-78
2021/07/11 10:53:35;;;;;;;11.97;11.47;;;27.80;84.60;;;;;;4992610;28;20458;-77
2021/07/11 10:56:02;;;;;;;11.87;11.40;;;27.70;85.80;;;;;;4992687;28;20485;-78
2021/07/11 10:58:39;;;;;;;11.73;11.23;;;27.20;88.00;;;;;;4992555;28;20971;-78
2021/07/11 11:01:17;;;;;;;12.47;11.77;;;27.00;88.20;;;;;;4992577;28;20447;-75
2021/07/11 11:03:48;;;;;;;11.70;11.30;;;26.90;90.70;;;;;;4992721;28;20450;-77
2021/07/11 11:06:18;;;;;;;12.20;11.70;;;26.50;90.40;;;;;;4992243;28;20454;-77
2021/07/11 11:08:47;;;;;;;12.77;12.27;;;26.60;90.90;;;;;;4992465;28;20498;-77
2021/07/11 11:11:14;;;;;;;10.60;10.20;;;26.60;90.80;;;;;;4991747;28;20511;-77
2021/07/11 11:13:41;;;;;;;11.10;10.60;;;26.70;90.50;;;;;;4992080;28;20483;-78
2021/07/11 11:16:16;;;;;;;12.10;11.60;;;26.30;91.10;;;;;;4992147;28;20459;-78
2021/07/11 11:18:44;;;;;;;9.90;9.50;;;25.80;91.20;;;;;;4992121;28;20454;-78
2021/07/11 11:21:14;;;;;;;11.10;10.70;;;25.60;91.50;;;;;;4991936;28;20490;-79
2021/07/11 11:23:44;;;;;;;12.07;11.47;;;25.50;91.60;;;;;;4992079;28;20458;-78
2021/07/11 11:26:18;;;;;;;11.33;10.93;;;25.60;91.40;;;;;;4991614;28;20458;-78
2021/07/11 11:28:45;;;;;;;11.50;11.10;;;25.40;91.90;;;;;;4991572;28;20454;-78
2021/07/11 11:31:15;;;;;;;11.43;10.97;;;25.30;92.90;;;;;;4991697;28;20447;-78
2021/07/11 11:33:53;;;;;;;10.47;10.07;;;25.30;93.30;;;;;;4991774;28;20455;-77
2021/07/11 11:36:22;;;;;;;12.00;11.33;;;25.50;93.10;;;;;;4991598;28;20839;-78
2021/07/11 11:38:49;;;;;;;12.33;11.80;;;25.50;93.10;;;;;;4991568;28;20451;-77
2021/07/11 11:41:19;;;;;;;11.60;11.20;;;25.40;93.10;;;;;;4991264;28;20491;-77
2021/07/11 11:43:47;;;;;;;12.07;11.53;;;25.60;92.70;;;;;;4991366;28;20941;-77
2021/07/11 11:46:24;;;;;;;10.17;9.80;;;25.10;93.30;;;;;;4991271;28;20459;-77
2021/07/11 11:48:55;;;;;;;11.40;10.90;;;24.80;94.30;;;;;;4991148;28;20459;-77
2021/07/11 11:51:21;;;;;;;10.93;10.50;;;24.50;95.60;;;;;;4991147;28;20956;-76
2021/07/11 11:53:48;;;;;;;12.30;11.63;;;24.00;96.60;;;;;;4991225;28;20450;-77
2021/07/11 11:56:16;;;;;;;11.77;11.27;;;23.80;97.30;;;;;;4990877;28;20454;-76
2021/07/11 11:58:43;;;;;;;11.40;10.90;;;23.70;97.40;;;;;;4991053;28;20886;-77
2021/07/11 12:01:12;;;;;;;11.50;11.10;;;24.10;97.30;;;;;;4990943;28;20502;-77
2021/07/11 12:03:40;;;;;;;11.43;10.93;;;24.10;97.60;;;;;;4991206;28;20458;-76
2021/07/11 12:06:09;;;;;;;12.20;11.60;;;24.10;98.10;;;;;;4990897;28;21119;-79
2021/07/11 12:08:37;;;;;;;11.23;10.73;;;24.10;97.70;;;;;;4990863;28;20450;-77
2021/07/11 12:11:06;;;;;;;11.30;10.90;;;24.20;97.60;;;;;;4990461;28;20834;-76
2021/07/11 12:13:35;;;;;;;11.80;11.23;;;24.60;96.60;;;;;;4990541;28;20525;-77
2021/07/11 12:16:07;;;;;;;11.93;11.50;;;24.90;95.90;;;;;;4990595;28;20454;-77
2021/07/11 12:18:44;;;;;;;11.37;10.87;;;25.10;95.60;;;;;;4990820;28;20462;-77
2021/07/11 12:21:12;;;;;;;11.17;10.67;;;25.20;95.60;;;;;;4990617;28;20494;-77
2021/07/11 12:23:39;;;;;;;11.67;11.17;;;25.40;94.90;;;;;;4991117;28;20451;-77
2021/07/11 12:26:07;;;;;;;12.43;11.90;;;25.30;94.80;;;;;;4990566;28;20486;-77
2021/07/11 12:28:39;;;;;;;10.70;10.30;;;25.20;95.70;;;;;;4990812;28;20540;-77
2021/07/11 12:31:06;;;;;;;13.30;12.70;;;25.70;94.50;;;;;;4990615;28;20451;-78
2021/07/11 12:33:35;;;;;;;11.30;10.90;;;26.00;93.90;;;;;;4990782;28;20451;-77
2021/07/11 12:36:06;;;;;;;11.27;10.67;;;26.50;92.90;;;;;;4990304;28;20546;-77
2021/07/11 12:38:34;;;;;;;12.20;11.50;;;26.40;93.30;;;;;;4990571;28;20454;-77
2021/07/11 12:41:03;;;;;;;12.10;11.70;;;26.30;93.00;;;;;;4989587;28;20490;-77
2021/07/11 12:43:31;;;;;;;11.80;11.30;;;26.30;93.20;;;;;;4990675;28;20466;-78
2021/07/11 12:46:03;;;;;;;12.93;12.17;;;26.40;93.40;;;;;;4990337;28;20459;-78
2021/07/11 12:48:39;;;;;;;11.20;10.80;;;27.20;92.20;;;;;;4990374;28;20451;-77
2021/07/11 12:51:17;;;;;;;12.90;12.10;;;28.20;89.80;;;;;;4990206;28;20450;-77
2021/07/11 12:53:44;;;;;;;11.27;10.87;;;28.70;88.80;;;;;;4990521;28;20508;-77
2021/07/11 12:56:14;;;;;;;12.27;11.67;;;28.70;88.00;;;;;;4990349;28;20573;-77
2021/07/11 12:58:42;;;;;;;11.43;11.03;;;28.20;87.70;;;;;;4990350;28;20948;-77
2021/07/11 13:01:11;;;;;;;12.40;11.20;;;27.90;88.30;;;;;;4989993;28;20522;-77
2021/07/11 13:03:38;;;;;;;11.27;10.87;;;26.90;90.10;;;;;;4990513;28;20455;-77
2021/07/11 13:06:04;;;;;;;12.00;11.60;;;26.90;90.80;;;;;;4990080;28;20823;-78
2021/07/11 13:08:31;;;;;;;12.90;12.30;;;27.00;90.80;;;;;;4990214;28;20847;-77
2021/07/11 13:10:59;;;;;;;11.77;11.27;;;26.50;90.30;;;;;;4990077;28;20471;-77
2021/07/11 13:13:25;;;;;;;12.47;11.97;;;26.10;91.60;;;;;;4989906;28;20510;-77
2021/07/11 13:15:52;;;;;;;12.07;11.63;;;26.00;91.80;;;;;;4990301;28;20447;-77
2021/07/11 13:18:20;;;;;;;12.50;11.90;;;26.00;91.90;;;;;;4989861;28;20451;-78
2021/07/11 13:20:47;;;;;;;11.87;11.37;;;26.00;91.70;;;;;;4990029;28;20495;-77
2021/07/11 13:23:14;;;;;;;11.37;10.87;;;25.90;91.80;;;;;;4989841;28;20801;-78
2021/07/11 13:25:43;;;;;;;11.30;10.70;;;25.90;92.20;;;;;;4990026;28;20474;-78
2021/07/11 13:28:10;;;;;;;11.40;10.90;;;25.90;92.80;;;;;;4990097;28;20482;-78
2021/07/11 13:30:38;;;;;;;11.87;11.47;;;25.70;92.60;;;;;;4990198;28;20509;-77
2021/07/11 13:33:05;;;;;;;11.60;11.20;;;25.50;92.50;;;;;;4990046;28;20454;-78
2021/07/11 13:35:33;;;;;;;11.57;11.13;;;25.20;92.90;;;;;;4988755;28;20481;-78
2021/07/11 13:37:59;;;;;;;11.20;10.80;;;25.10;93.20;;;;;;4990164;28;20835;-77
2021/07/11 13:40:26;;;;;;;10.73;10.33;;;25.00;93.50;;;;;;4990278;28;20486;-77
2021/07/11 13:42:53;;;;;;;10.90;10.50;;;24.70;93.90;;;;;;4990418;28;20462;-77
2021/07/11 13:45:21;;;;;;;11.80;11.40;;;24.50;94.60;;;;;;4990168;28;20541;-78
2021/07/11 13:47:49;;;;;;;12.47;11.83;;;24.50;95.30;;;;;;4992186;28;20449;-78
2021/07/11 13:50:18;;;;;;;13.10;12.60;;;24.30;98.60;;;;;;4992263;28;20462;-82
2021/07/11 13:52:47;;;;;;;14.33;13.83;;;24.20;99.90;;;;;;4992855;28;20482;-79
2021/07/11 13:55:18;;;;;;;13.00;12.50;;;24.10;99.90;;;;;;4993864;28;20458;-81
2021/07/11 13:57:45;;;;;;;11.40;11.00;;;24.20;99.90;;;;;;4997025;28;20521;-80
2021/07/11 14:00:12;;;;;;;13.20;12.60;;;24.30;99.90;;;;;;4995324;28;20513;-78
2021/07/11 14:02:39;;;;;;;12.33;11.90;;;24.70;99.90;;;;;;4994069;28;20447;-77
2021/07/11 14:05:07;;;;;;;10.93;10.47;;;25.60;98.70;;;;;;4993758;28;20502;-78
2021/07/11 14:07:34;;;;;;;10.07;9.77;;;26.30;96.20;;;;;;4993775;28;20461;-77
2021/07/11 14:10:04;;;;;;;10.90;10.50;;;27.10;94.10;;;;;;4993611;28;20454;-77
2021/07/11 14:12:31;;;;;;;12.10;11.60;;;27.80;92.10;;;;;;4993359;28;20929;-77
2021/07/11 14:14:57;;;;;;;12.10;11.70;;;28.40;91.40;;;;;;4993707;28;20463;-77
2021/07/11 14:17:24;;;;;;;11.70;11.30;;;28.80;90.60;;;;;;4993631;28;20454;-78
2021/07/11 14:19:51;;;;;;;12.00;11.60;;;29.40;88.10;;;;;;4993319;28;20490;-78
2021/07/11 14:22:18;;;;;;;11.23;10.80;;;29.60;87.10;;;;;;4993133;28;20446;-78
2021/07/11 14:24:45;;;;;;;11.83;11.43;;;29.60;86.50;;;;;;4993440;28;20454;-79
2021/07/11 14:27:13;;;;;;;12.00;11.50;;;30.00;86.30;;;;;;4993398;28;20471;-79
2021/07/11 14:29:39;;;;;;;11.23;10.83;;;30.50;85.70;;;;;;4993757;28;20462;-79
2021/07/11 14:32:07;;;;;;;11.57;11.07;;;30.80;84.40;;;;;;4993367;28;20447;-80
2021/07/11 14:34:34;;;;;;;12.77;12.27;;;31.40;81.80;;;;;;4993443;28;20452;-80
2021/07/11 14:37:00;;;;;;;12.87;12.37;;;31.90;77.90;;;;;;4993317;28;20466;-77
2021/07/11 14:39:27;;;;;;;11.67;11.27;;;31.80;76.30;;;;;;4994624;28;20458;-78
2021/07/11 14:41:54;;;;;;;11.43;11.03;;;31.50;76.40;;;;;;5001929;28;21034;-77
2021/07/11 14:44:22;;;;;;;11.40;11.00;;;31.90;75.00;;;;;;4993077;28;20443;-77
2021/07/11 14:46:49;;;;;;;10.53;10.13;;;32.50;73.10;;;;;;5003155;28;20933;-77
2021/07/11 14:49:18;;;;;;;11.23;10.83;;;32.70;69.80;;;;;;4993200;28;20466;-77
2021/07/11 14:51:44;;;;;;;11.90;11.40;;;32.30;71.50;;;;;;4992847;28;20446;-76
2021/07/11 14:54:11;;;;;;;11.37;10.97;;;32.10;71.10;;;;;;4993077;28;20455;-76
2021/07/11 14:56:38;;;;;;;12.07;11.57;;;31.90;70.90;;;;;;4992773;28;20438;-77
2021/07/11 14:59:04;;;;;;;11.40;11.00;;;31.50;72.70;;;;;;4992808;28;20458;-76
2021/07/11 15:01:32;;;;;;;11.83;11.43;;;31.20;72.10;;;;;;4992539;28;20486;-77
2021/07/11 15:03:59;;;;;;;12.10;11.70;;;31.40;71.50;;;;;;4992246;28;20477;-77
2021/07/11 15:06:26;;;;;;;11.40;11.00;;;31.00;73.40;;;;;;4992600;28;20454;-76
2021/07/11 15:08:52;;;;;;;12.60;12.20;;;30.50;73.10;;;;;;4992754;28;20450;-76
2021/07/11 15:11:19;;;;;;;13.20;12.73;;;29.20;76.90;;;;;;4992295;28;20463;-76
2021/07/11 15:13:46;;;;;;;10.90;10.50;;;28.50;78.10;;;;;;5002979;28;20474;-77
2021/07/11 15:16:12;;;;;;;11.33;10.93;;;27.70;82.20;;;;;;5010812;28;20816;-76
2021/07/11 15:18:40;;;;;;;11.80;11.20;;;27.40;83.90;;;;;;5010814;28;20456;-76
2021/07/11 15:21:07;;;;;;;12.00;11.60;;;27.30;84.10;;;;;;5007998;28;21022;-77
2021/07/11 15:23:34;;;;;;;12.30;11.80;;;26.90;84.60;;;;;;5010605;28;20453;-77
2021/07/11 15:26:01;;;;;;;11.27;10.80;;;26.70;86.40;;;;;;5010306;28;20518;-76
2021/07/11 15:28:27;;;;;;;11.17;10.57;;;26.60;85.90;;;;;;5008177;28;20446;-77
2021/07/11 15:30:54;;;;;;;11.20;10.70;;;26.40;86.40;;;;;;5010617;28;20449;-77
2021/07/11 15:33:21;;;;;;;11.07;10.67;;;26.50;86.50;;;;;;5010448;28;20471;-77
2021/07/11 15:35:50;;;;;;;11.40;10.90;;;26.40;87.00;;;;;;5010020;28;20936;-77
2021/07/11 15:38:17;;;;;;;11.60;11.10;;;26.10;86.70;;;;;;5010163;28;20508;-76
2021/07/11 15:40:47;;;;;;;11.70;11.30;;;25.70;88.30;;;;;;5010187;28;20482;-76
2021/07/11 15:43:14;;;;;;;11.70;10.90;;;25.60;89.60;;;;;;5010168;28;20545;-77
2021/07/11 15:45:41;;;;;;;10.73;10.33;;;25.40;90.00;;;;;;5010306;28;20472;-76
2021/07/11 15:48:12;;;;;;;11.43;11.03;;;25.10;90.30;;;;;;5008025;28;20484;-76
2021/07/11 15:50:42;;;;;;;10.50;10.10;;;25.20;90.30;;;;;;5010297;28;20851;-76
2021/07/11 15:53:12;;;;;;;11.80;11.40;;;25.20;90.50;;;;;;5008122;28;20450;-76
2021/07/11 15:55:39;;;;;;;11.40;10.90;;;25.40;90.30;;;;;;5009989;28;20454;-76
2021/07/11 15:58:06;;;;;;;12.20;11.70;;;25.60;90.40;;;;;;5010028;28;20449;-76
2021/07/11 16:00:34;;;;;;;10.63;10.20;;;25.80;90.20;;;;;;5009741;28;20446;-76
2021/07/11 16:03:01;;;;;;;10.67;10.20;;;26.00;89.10;;;;;;5009670;28;20451;-76
2021/07/11 16:05:28;;;;;;;10.70;10.30;;;25.90;89.10;;;;;;5007448;28;21002;-77
2021/07/11 16:07:55;;;;;;;10.27;9.87;;;25.90;89.70;;;;;;5010030;28;20478;-76
2021/07/11 16:10:24;;;;;;;10.93;10.53;;;25.70;88.10;;;;;;5009743;28;20508;-76
2021/07/11 16:12:51;;;;;;;11.17;10.70;;;25.60;88.70;;;;;;5010502;28;20551;-76
2021/07/11 16:15:18;;;;;;;10.60;10.20;;;25.40;89.80;;;;;;5010279;28;20450;-76
2021/07/11 16:17:45;;;;;;;10.53;10.13;;;25.50;89.20;;;;;;5010808;28;20454;-75
2021/07/11 16:20:14;;;;;;;10.80;10.40;;;25.30;89.90;;;;;;5010986;28;20876;-75
2021/07/11 16:22:42;;;;;;;10.60;10.00;;;25.10;90.10;;;;;;5011007;28;20512;-76
2021/07/11 16:25:12;;;;;;;10.80;10.40;;;24.80;90.50;;;;;;5011042;28;20454;-76
2021/07/11 16:27:40;;;;;;;10.80;10.40;;;24.50;90.70;;;;;;5010876;28;20457;-76
2021/07/11 16:30:09;;;;;;;11.50;11.10;;;24.40;91.50;;;;;;5010472;28;20958;-76
2021/07/11 16:32:36;;;;;;;10.90;10.50;;;24.50;91.60;;;;;;5010426;28;20450;-76
2021/07/11 16:35:04;;;;;;;10.70;10.30;;;24.50;92.20;;;;;;5010613;28;20462;-77
2021/07/11 16:37:30;;;;;;;9.30;9.00;;;24.50;91.70;;;;;;5010831;28;20450;-77
2021/07/11 16:39:58;;;;;;;11.83;11.33;;;24.50;91.80;;;;;;5010424;28;20458;-76
2021/07/11 16:42:24;;;;;;;11.50;11.10;;;24.50;92.10;;;;;;5010571;28;20584;-76
2021/07/11 16:44:52;;;;;;;10.97;10.57;;;24.60;91.70;;;;;;5010360;28;20458;-76
2021/07/11 16:47:19;;;;;;;11.63;11.13;;;24.40;91.20;;;;;;5010614;28;20454;-76
2021/07/11 16:49:46;;;;;;;10.93;10.53;;;24.30;91.50;;;;;;5010165;28;20457;-76
2021/07/11 16:52:13;;;;;;;11.23;10.73;;;24.20;91.80;;;;;;5010578;28;20446;-77
2021/07/11 16:54:40;;;;;;;11.10;10.60;;;24.10;92.10;;;;;;5010267;28;20936;-76
2021/07/11 16:57:07;;;;;;;11.10;10.50;;;24.10;92.50;;;;;;5010223;28;20490;-77
2021/07/11 16:59:34;;;;;;;10.50;10.10;;;24.10;92.60;;;;;;5009557;28;20465;-77
2021/07/11 17:02:02;;;;;;;10.33;9.93;;;23.90;93.00;;;;;;5010135;28;20850;-77
2021/07/11 17:04:28;;;;;;;10.90;10.50;;;23.80;93.20;;;;;;5010103;28;20477;-77
2021/07/11 17:06:55;;;;;;;11.00;10.50;;;23.80;93.30;;;;;;5010565;28;20472;-77
2021/07/11 17:09:22;;;;;;;11.87;11.37;;;23.70;93.70;;;;;;5010102;28;20458;-76
2021/07/11 17:11:48;;;;;;;11.57;11.07;;;23.60;94.40;;;;;;5009656;28;20481;-77
2021/07/11 17:14:15;;;;;;;12.30;11.80;;;23.40;95.50;;;;;;5009742;28;20446;-77
2021/07/11 17:16:42;;;;;;;10.50;9.80;;;23.30;95.30;;;;;;5010582;28;20465;-77
2021/07/11 17:19:10;;;;;;;10.20;9.80;;;23.20;94.90;;;;;;5010453;28;20476;-77
2021/07/11 17:21:37;;;;;;;10.40;10.00;;;23.20;95.10;;;;;;5009714;28;20482;-78
2021/07/11 17:24:04;;;;;;;11.20;10.53;;;23.20;94.40;;;;;;5010115;28;20803;-77
2021/07/11 17:26:31;;;;;;;10.67;10.23;;;23.20;94.50;;;;;;5010589;28;20818;-77
2021/07/11 17:28:58;;;;;;;10.57;10.17;;;23.30;94.60;;;;;;5014397;28;20461;-77
2021/07/11 17:31:25;;;;;;;10.40;9.93;;;23.30;94.80;;;;;;5013725;28;20453;-77
2021/07/11 17:33:52;;;;;;;10.00;9.70;;;23.30;95.50;;;;;;5013893;28;20449;-78
2021/07/11 17:36:20;;;;;;;9.87;9.50;;;23.20;95.70;;;;;;5013819;28;20496;-78
2021/07/11 17:38:46;;;;;;;10.07;9.67;;;23.20;94.80;;;;;;5013719;28;20608;-77
2021/07/11 17:41:13;;;;;;;10.60;10.13;;;23.30;94.80;;;;;;5013937;28;20489;-77
2021/07/11 17:43:40;;;;;;;10.13;9.63;;;23.20;95.20;;;;;;5014388;28;20456;-77
2021/07/11 17:46:06;;;;;;;10.23;9.73;;;23.10;95.20;;;;;;5013659;28;20449;-77
2021/07/11 17:48:33;;;;;;;10.20;9.80;;;23.10;95.40;;;;;;5013426;28;21125;-77
2021/07/11 17:51:00;;;;;;;10.87;10.47;;;23.10;95.70;;;;;;5013639;28;20476;-76
2021/07/11 17:53:28;;;;;;;11.17;10.50;;;23.10;95.20;;;;;;5013598;28;20794;-76
2021/07/11 17:55:55;;;;;;;11.17;10.60;;;23.10;95.60;;;;;;5013680;28;20450;-76
2021/07/11 17:58:22;;;;;;;11.60;11.00;;;23.00;95.70;;;;;;5013233;28;20464;-77
2021/07/11 18:00:49;;;;;;;10.30;9.90;;;22.90;96.00;;;;;;5013467;28;20456;-77
2021/07/11 18:03:16;;;;;;;9.60;9.20;;;22.80;95.50;;;;;;5013092;28;20492;-77
2021/07/11 18:05:42;;;;;;;10.27;9.83;;;22.80;95.90;;;;;;5013687;28;20962;-77
2021/07/11 18:08:09;;;;;;;10.80;10.30;;;22.80;96.00;;;;;;5013337;28;20476;-78
2021/07/11 18:10:37;;;;;;;9.67;9.33;;;22.80;96.10;;;;;;5013179;28;20830;-77
2021/07/11 18:13:05;;;;;;;10.13;9.83;;;22.70;96.50;;;;;;5012859;28;20476;-77
2021/07/11 18:15:32;;;;;;;10.30;9.90;;;22.70;96.20;;;;;;5012870;28;20462;-77
2021/07/11 18:17:59;;;;;;;9.93;9.63;;;22.60;96.80;;;;;;5012891;28;20449;-77
2021/07/11 18:20:26;;;;;;;9.80;9.40;;;22.50;96.70;;;;;;5013158;28;20955;-78
2021/07/11 18:22:53;;;;;;;9.30;9.00;;;22.50;97.30;;;;;;5013158;28;20500;-77
2021/07/11 18:25:19;;;;;;;10.57;10.17;;;22.50;97.90;;;;;;5012930;28;20450;-77
2021/07/11 18:27:47;;;;;;;10.13;9.67;;;22.40;98.20;;;;;;5012912;28;20469;-78
2021/07/11 18:30:15;;;;;;;10.47;10.00;;;22.40;98.40;;;;;;5012743;28;20461;-78
2021/07/11 18:32:44;;;;;;;10.10;9.70;;;22.30;98.70;;;;;;5013021;28;20456;-78
2021/07/11 18:35:14;;;;;;;10.23;9.83;;;22.30;99.20;;;;;;5013303;28;20457;-78
2021/07/11 18:37:41;;;;;;;10.50;10.00;;;22.20;99.60;;;;;;5012681;28;20455;-78
2021/07/11 18:40:10;;;;;;;10.43;10.03;;;22.10;99.90;;;;;;5012454;28;20461;-77
2021/07/11 18:42:37;;;;;;;11.30;10.90;;;22.00;99.90;;;;;;5012668;28;20493;-77
2021/07/11 18:45:08;;;;;;;10.40;10.00;;;22.00;99.90;;;;;;5012842;28;20934;-77
2021/07/11 18:47:36;;;;;;;11.40;10.90;;;21.90;99.90;;;;;;5012571;28;20453;-78
2021/07/11 18:50:04;;;;;;;11.53;10.97;;;21.90;99.90;;;;;;5012535;28;20445;-77
2021/07/11 18:52:32;;;;;;;10.10;9.70;;;21.80;99.90;;;;;;5012553;28;20506;-77
2021/07/11 18:54:58;;;;;;;10.87;10.40;;;21.70;99.90;;;;;;5012794;28;20781;-76
2021/07/11 18:57:25;;;;;;;11.23;10.80;;;21.70;99.90;;;;;;5012543;28;20473;-76
2021/07/11 18:59:53;;;;;;;10.80;10.30;;;21.50;99.90;;;;;;5012580;28;20458;-77
2021/07/11 19:02:21;;;;;;;10.93;10.43;;;21.40;99.90;;;;;;5012141;28;20490;-77
2021/07/11 19:04:48;;;;;;;9.63;9.30;;;21.40;99.90;;;;;;5012330;28;20446;-77
2021/07/11 19:07:14;;;;;;;10.10;9.70;;;21.30;99.90;;;;;;5011797;28;20441;-78
2021/07/11 19:09:41;;;;;;;10.40;10.00;;;21.10;99.90;;;;;;5012234;28;20812;-77
2021/07/11 19:12:08;;;;;;;12.33;11.63;;;20.90;99.90;;;;;;5012070;28;20485;-77
2021/07/11 19:14:35;;;;;;;10.40;10.00;;;20.80;99.90;;;;;;5011770;28;20927;-77
2021/07/11 19:17:02;;;;;;;10.70;10.30;;;20.70;99.90;;;;;;5012112;28;20485;-78
2021/07/11 19:19:30;;;;;;;10.20;9.80;;;20.60;99.90;;;;;;5011965;28;20446;-78
2021/07/11 19:22:02;;;;;;;11.20;10.70;;;20.50;99.90;;;;;;5012235;28;20489;-78
2021/07/11 19:24:29;;;;;;;11.80;11.30;;;20.30;99.90;;;;;;5011824;28;20469;-78
2021/07/11 19:26:55;;;;;;;9.97;9.57;;;20.30;99.90;;;;;;5011744;28;20492;-77
2021/07/11 19:29:22;;;;;;;9.20;8.70;;;20.20;99.90;;;;;;5011731;28;20572;-78
2021/07/11 19:31:49;;;;;;;10.73;10.30;;;20.10;99.90;;;;;;5011619;28;20446;-77
2021/07/11 19:34:16;;;;;;;11.40;10.50;;;20.00;99.90;;;;;;5011553;28;20457;-78
2021/07/11 19:36:44;;;;;;;10.60;10.13;;;19.90;99.90;;;;;;5012018;28;20458;-78
2021/07/11 19:39:10;;;;;;;11.67;10.97;;;19.70;99.90;;;;;;5011423;28;20452;-77
2021/07/11 19:41:37;;;;;;;9.70;9.20;;;19.60;99.90;;;;;;5011019;28;20489;-75
2021/07/11 19:44:04;;;;;;;9.57;9.17;;;19.50;99.90;;;;;;5011311;28;21144;-76
2021/07/11 19:46:31;;;;;;;9.60;9.20;;;19.40;99.90;;;;;;5011081;28;20438;-75
2021/07/11 19:48:58;;;;;;;10.13;9.73;;;19.40;99.90;;;;;;5011212;28;20442;-76
2021/07/11 19:51:45;;;;;;;10.57;10.13;;;19.40;99.90;;;;;;5011321;28;20481;-78
2021/07/11 19:54:12;;;;;;;11.27;10.70;;;19.30;99.90;;;;;;5011269;28;20453;-77
2021/07/11 19:56:40;;;;;;;11.03;10.53;;;19.20;99.90;;;;;;5011094;28;20810;-77
2021/07/11 19:59:07;;;;;;;12.50;11.90;;;19.10;99.90;;;;;;5010915;28;20450;-79
2021/07/11 20:01:34;;;;;;;11.13;10.53;;;19.00;99.90;;;;;;5010422;28;20450;-76
2021/07/11 20:04:00;;;;;;;11.43;10.90;;;18.90;99.90;;;;;;5010605;28;20457;-79
2021/07/11 20:06:27;;;;;;;11.07;10.67;;;18.90;99.90;;;;;;5010478;28;20468;-78
2021/07/11 20:08:55;;;;;;;11.67;11.20;;;18.80;99.90;;;;;;5010502;28;20498;-79
2021/07/11 20:11:23;;;;;;;10.83;10.13;;;18.70;99.90;;;;;;5010359;28;20473;-78
2021/07/11 20:13:50;;;;;;;11.83;11.23;;;18.70;99.90;;;;;;5010353;28;20474;-78
2021/07/11 20:16:18;;;;;;;11.00;10.53;;;18.70;99.90;;;;;;5010325;28;20446;-79
2021/07/11 20:18:46;;;;;;;10.97;10.47;;;18.60;99.90;;;;;;5010384;28;20464;-79
2021/07/11 20:21:13;;;;;;;11.13;10.70;;;18.60;99.90;;;;;;5010367;28;20462;-76
2021/07/11 20:23:39;;;;;;;11.60;11.07;;;18.50;99.90;;;;;;5010400;28;20489;-78
2021/07/11 20:26:08;;;;;;;11.70;11.00;;;18.30;99.90;;;;;;5010351;28;20453;-77
2021/07/11 20:28:34;;;;;;;11.23;10.50;;;18.20;99.90;;;;;;5010035;28;20772;-78